createdAt,value
2023-04-19T00:01:03.304Z,100460.81
2023-04-19T00:03:31.653Z,100464.16
2023-04-19T00:05:59.343Z,100456.94
2023-04-19T00:08:26.750Z,100454.09
2023-04-19T00:10:54.195Z,100455.72
2023-04-19T00:13:21.994Z,100458.34
2023-04-19T00:15:49.187Z,100452.56
2023-04-19T00:18:16.612Z,100449.78
2023-04-19T00:20:44.287Z,100454.09
2023-04-19T00:23:11.388Z,100448.03
2023-04-19T00:25:39.066Z,100454.31
2023-04-19T00:28:06.175Z,100444.59
2023-04-19T00:30:33.334Z,100445.03
2023-04-19T00:33:01.167Z,100445.97
2023-04-19T00:35:28.272Z,100438.16
2023-04-19T00:37:55.476Z,100438.28
2023-04-19T00:40:23.009Z,100441.84
2023-04-19T00:42:50.201Z,100432.00
2023-04-19T00:45:17.328Z,100436.19
2023-04-19T00:47:44.901Z,100435.78
2023-04-19T00:50:12.599Z,100430.75
2023-04-19T00:52:39.973Z,100434.81
2023-04-19T00:55:08.192Z,100429.06
2023-04-19T00:57:35.529Z,100423.87
2023-04-19T01:00:02.851Z,100424.50
2023-04-19T01:02:32.035Z,100422.22
2023-04-19T01:04:59.260Z,100418.66
2023-04-19T01:07:26.609Z,100415.84
2023-04-19T01:09:54.140Z,100416.16
2023-04-19T01:12:23.055Z,100409.03
2023-04-19T01:14:50.651Z,100414.91
2023-04-19T01:17:19.323Z,100411.66
2023-04-19T01:19:46.685Z,100407.69
2023-04-19T01:22:21.489Z,100401.62
2023-04-19T01:24:48.929Z,100405.59
2023-04-19T01:27:17.572Z,100407.38
2023-04-19T01:29:44.749Z,100399.84
2023-04-19T01:32:13.779Z,100397.34
2023-04-19T01:34:42.012Z,100388.56
2023-04-19T01:37:09.257Z,100390.03
2023-04-19T01:39:36.770Z,100394.53
2023-04-19T01:42:04.457Z,100392.25
2023-04-19T01:44:31.654Z,100399.25
2023-04-19T01:47:00.394Z,100392.34
2023-04-19T01:49:27.683Z,100388.09
2023-04-19T01:51:54.862Z,100388.16
2023-04-19T01:54:22.320Z,100384.19
2023-04-19T01:56:50.855Z,100382.72
2023-04-19T01:59:18.057Z,100380.81
2023-04-19T02:01:45.825Z,100375.59
2023-04-19T02:04:13.511Z,100378.31
2023-04-19T02:06:40.973Z,100375.91
2023-04-19T02:09:08.424Z,100369.31
2023-04-19T02:11:35.876Z,100376.56
2023-04-19T02:14:03.016Z,100379.78
2023-04-19T02:16:30.196Z,100372.47
2023-04-19T02:18:58.762Z,100378.91
2023-04-19T02:21:26.008Z,100371.47
2023-04-19T02:23:53.153Z,100374.97
2023-04-19T02:26:20.710Z,100373.91
2023-04-19T02:28:48.129Z,100373.41
2023-04-19T02:31:15.675Z,100368.87
2023-04-19T02:33:44.084Z,100365.31
2023-04-19T02:36:12.169Z,100362.87
2023-04-19T02:38:39.296Z,100353.91
2023-04-19T02:41:06.402Z,100349.94
2023-04-19T02:43:33.818Z,100348.09
2023-04-19T02:46:01.595Z,100343.81
2023-04-19T02:48:28.873Z,100342.88
2023-04-19T02:50:56.358Z,100338.19
2023-04-19T02:53:23.676Z,100340.28
2023-04-19T02:55:51.188Z,100339.34
2023-04-19T02:58:18.894Z,100334.12
2023-04-19T03:00:46.482Z,100327.97
2023-04-19T03:03:14.613Z,100328.25
2023-04-19T03:05:42.089Z,100320.00
2023-04-19T03:08:11.160Z,100321.25
2023-04-19T03:10:38.629Z,100321.47
2023-04-19T03:13:06.006Z,100321.91
2023-04-19T03:15:33.126Z,100322.00
2023-04-19T03:18:00.362Z,100316.25
2023-04-19T03:20:28.252Z,100309.81
2023-04-19T03:22:56.448Z,100317.09
2023-04-19T03:25:24.195Z,100307.34
2023-04-19T03:27:52.749Z,100310.44
2023-04-19T03:30:20.978Z,100308.06
2023-04-19T03:32:48.376Z,100304.31
2023-04-19T03:35:16.183Z,100306.19
2023-04-19T03:37:44.013Z,100300.78
2023-04-19T03:40:11.692Z,100302.09
2023-04-19T03:42:39.554Z,100294.69
2023-04-19T03:45:07.326Z,100303.56
2023-04-19T03:47:35.033Z,100304.31
2023-04-19T03:50:03.474Z,100300.44
2023-04-19T03:52:31.351Z,100304.50
2023-04-19T03:54:58.533Z,100305.94
2023-04-19T03:57:26.474Z,100299.25
2023-04-19T03:59:53.917Z,100302.31
2023-04-19T04:02:21.321Z,100304.94
2023-04-19T04:04:54.192Z,100307.72
2023-04-19T04:07:23.238Z,100306.91
2023-04-19T04:09:51.546Z,100301.19
2023-04-19T04:12:18.685Z,100304.44
2023-04-19T04:14:47.229Z,100303.91
2023-04-19T04:17:15.326Z,100298.56
2023-04-19T04:19:42.972Z,100304.28
2023-04-19T04:22:10.183Z,100306.84
2023-04-19T04:24:41.464Z,100296.47
2023-04-19T04:27:11.036Z,100303.12
2023-04-19T04:29:39.784Z,100298.88
2023-04-19T04:32:10.875Z,100300.41
2023-04-19T04:34:38.586Z,100300.63
2023-04-19T04:37:07.800Z,100295.06
2023-04-19T04:39:39.223Z,100293.41
2023-04-19T04:42:08.956Z,100296.09
2023-04-19T04:44:37.229Z,100288.88
2023-04-19T04:47:04.933Z,100288.37
2023-04-19T04:49:33.491Z,100301.84
2023-04-19T04:52:00.815Z,100295.28
2023-04-19T04:54:28.961Z,100285.81
2023-04-19T04:56:57.281Z,100293.84
2023-04-19T04:59:24.536Z,100290.59
2023-04-19T05:01:51.796Z,100288.56
2023-04-19T05:04:19.645Z,100286.47
2023-04-19T05:06:46.921Z,100282.97
2023-04-19T05:09:17.348Z,100289.19
2023-04-19T05:11:45.809Z,100285.94
2023-04-19T05:14:13.436Z,100281.78
2023-04-19T05:16:40.892Z,100282.91
2023-04-19T05:19:08.324Z,100287.97
2023-04-19T05:21:36.353Z,100283.31
2023-04-19T05:24:04.231Z,100282.69
2023-04-19T05:26:33.126Z,100285.56
2023-04-19T05:29:00.768Z,100282.88
2023-04-19T05:31:28.463Z,100293.16
2023-04-19T05:33:56.234Z,100291.34
2023-04-19T05:36:23.368Z,100296.28
2023-04-19T05:38:52.158Z,100284.09
2023-04-19T05:41:20.870Z,100285.34
2023-04-19T05:43:48.158Z,100285.56
2023-04-19T05:46:15.614Z,100285.53
2023-04-19T05:48:43.097Z,100290.12
2023-04-19T05:51:10.654Z,100286.88
2023-04-19T05:53:39.392Z,100281.72
2023-04-19T05:56:07.260Z,100282.41
2023-04-19T05:58:34.438Z,100282.13
2023-04-19T06:01:02.308Z,100271.53
2023-04-19T06:03:32.222Z,100273.66
2023-04-19T06:06:00.548Z,100267.34
2023-04-19T06:08:27.825Z,100277.34
2023-04-19T06:13:24.410Z,100274.72
2023-04-19T06:15:52.577Z,100272.47
2023-04-19T06:18:21.358Z,100281.03
2023-04-19T06:20:48.592Z,100275.94
2023-04-19T06:23:17.223Z,100272.09
2023-04-19T06:25:44.763Z,100273.91
2023-04-19T06:28:11.877Z,100275.09
2023-04-19T06:30:39.065Z,100283.84
2023-04-19T06:33:06.721Z,100279.12
2023-04-19T06:35:33.843Z,100273.66
2023-04-19T06:38:00.994Z,100269.25
2023-04-19T06:40:29.400Z,100264.88
2023-04-19T06:42:59.455Z,100268.69
2023-04-19T06:45:27.184Z,100258.44
2023-04-19T06:47:54.614Z,100263.81
2023-04-19T06:50:21.933Z,100258.56
2023-04-19T06:52:49.123Z,100256.19
2023-04-19T06:55:16.552Z,100265.22
2023-04-19T06:57:43.691Z,100258.19
2023-04-19T07:00:11.542Z,100254.75
2023-04-19T07:02:39.047Z,100248.81
2023-04-19T07:05:08.495Z,100257.03
2023-04-19T07:07:38.196Z,100255.19
2023-04-19T07:10:06.287Z,100245.19
2023-04-19T07:12:33.415Z,100253.38
2023-04-19T07:15:00.651Z,100256.75
2023-04-19T07:17:28.519Z,100253.38
2023-04-19T07:19:56.265Z,100248.91
2023-04-19T07:22:23.402Z,100250.28
2023-04-19T07:24:52.166Z,100247.19
2023-04-19T07:27:19.360Z,100249.63
2023-04-19T07:29:46.824Z,100252.09
2023-04-19T07:32:15.257Z,100252.59
2023-04-19T07:34:43.560Z,100244.59
2023-04-19T07:37:11.094Z,100242.16
2023-04-19T07:39:39.468Z,100247.91
2023-04-19T07:42:06.606Z,100246.72
2023-04-19T07:44:33.796Z,100249.34
2023-04-19T07:47:01.262Z,100250.63
2023-04-19T07:49:33.844Z,100252.66
2023-04-19T07:52:02.020Z,100246.87
2023-04-19T07:54:30.246Z,100243.72
2023-04-19T07:56:59.012Z,100256.81
2023-04-19T07:59:26.447Z,100243.22
2023-04-19T08:01:53.708Z,100242.59
2023-04-19T08:04:23.256Z,100249.47
2023-04-19T08:06:50.599Z,100248.88
2023-04-19T08:09:17.721Z,100256.75
2023-04-19T08:11:45.153Z,100248.47
2023-04-19T08:14:22.235Z,100248.69
2023-04-19T08:17:22.457Z,100250.22
2023-04-19T08:19:45.421Z,100246.78
2023-04-19T08:22:12.800Z,100245.94
2023-04-19T08:24:39.904Z,100248.00
2023-04-19T08:27:07.137Z,100251.41
2023-04-19T08:29:34.745Z,100245.84
2023-04-19T08:32:01.989Z,100251.97
2023-04-19T08:34:29.187Z,100250.00
2023-04-19T08:37:03.960Z,100253.94
2023-04-19T08:39:33.923Z,100252.28
2023-04-19T08:42:09.245Z,100253.63
2023-04-19T08:44:59.631Z,100249.66
2023-04-19T08:47:35.544Z,100246.47
2023-04-19T08:50:17.419Z,100248.97
2023-04-19T08:52:58.775Z,100247.31
2023-04-19T08:55:30.993Z,100236.44
2023-04-19T08:57:58.809Z,100244.84
2023-04-19T09:00:26.096Z,100231.88
2023-04-19T09:02:55.942Z,100233.59
2023-04-19T09:05:23.837Z,100235.84
2023-04-19T09:07:51.645Z,100228.22
2023-04-19T09:10:21.218Z,100230.47
2023-04-19T09:13:05.413Z,100237.16
2023-04-19T09:15:37.918Z,100234.44
2023-04-19T09:18:07.774Z,100226.91
2023-04-19T09:20:39.245Z,100230.22
2023-04-19T09:23:08.855Z,100226.06
2023-04-19T09:25:55.373Z,100225.16
2023-04-19T09:28:24.261Z,100218.25
2023-04-19T09:33:39.953Z,100218.16
2023-04-19T09:36:08.466Z,100220.56
2023-04-19T09:38:49.154Z,100221.97
2023-04-19T09:41:19.735Z,100215.44
2023-04-19T09:44:07.344Z,100210.44
2023-04-19T09:46:37.151Z,100205.47
2023-04-19T09:51:48.121Z,100208.72
2023-04-19T09:54:16.771Z,100208.50
2023-04-19T09:56:44.782Z,100213.50
2023-04-19T09:59:20.407Z,100207.75
2023-04-19T10:01:56.549Z,100202.53
2023-04-19T10:04:38.470Z,100207.88
2023-04-19T10:09:52.494Z,100219.50
2023-04-19T10:12:46.253Z,100203.13
2023-04-19T10:15:13.673Z,100213.63
2023-04-19T10:17:41.819Z,100197.81
2023-04-19T10:20:12.140Z,100196.31
2023-04-19T10:22:40.083Z,100201.19
2023-04-19T10:25:15.689Z,100192.34
2023-04-19T10:27:49.044Z,100196.22
2023-04-19T10:30:23.326Z,100190.69
2023-04-19T10:32:56.501Z,100197.22
2023-04-19T10:35:26.027Z,100194.81
2023-04-19T10:38:08.647Z,100187.09
2023-04-19T10:40:51.522Z,100198.97
2023-04-19T10:43:19.828Z,100186.69
2023-04-19T10:45:47.824Z,100189.87
2023-04-19T10:48:27.608Z,100193.78
2023-04-19T10:51:23.252Z,100187.84
2023-04-19T10:53:52.470Z,100182.59
2023-04-19T10:56:41.266Z,100174.69
2023-04-19T10:59:13.181Z,100180.53
2023-04-19T11:01:45.595Z,100183.88
2023-04-19T11:04:17.519Z,100180.28
2023-04-19T11:06:51.469Z,100175.13
2023-04-19T11:09:30.998Z,100167.66
2023-04-19T11:12:11.045Z,100168.09
2023-04-19T11:14:49.320Z,100168.09
2023-04-19T11:17:20.897Z,100165.59
2023-04-19T11:20:01.090Z,100164.47
2023-04-19T11:22:37.925Z,100156.16
2023-04-19T11:25:21.897Z,100150.78
2023-04-19T11:27:53.036Z,100149.66
2023-04-19T11:30:22.780Z,100144.84
2023-04-19T11:32:53.750Z,100150.38
2023-04-19T11:35:22.694Z,100150.22
2023-04-19T11:37:50.361Z,100141.09
2023-04-19T11:40:19.736Z,100149.66
2023-04-19T11:42:47.414Z,100149.50
2023-04-19T11:45:30.283Z,100146.16
2023-04-19T11:48:00.446Z,100148.09
2023-04-19T11:50:35.053Z,100143.88
2023-04-19T11:53:21.604Z,100147.88
2023-04-19T11:55:53.780Z,100149.81
2023-04-19T11:58:31.991Z,100148.00
2023-04-19T12:01:06.978Z,100156.16
2023-04-19T12:03:40.299Z,100147.56
2023-04-19T12:06:11.788Z,100147.84
2023-04-19T12:08:43.637Z,100157.81
2023-04-19T12:11:10.997Z,100147.56
2023-04-19T12:13:38.343Z,100147.84
2023-04-19T12:16:06.164Z,100153.34
2023-04-19T12:18:49.159Z,100149.22
2023-04-19T12:21:27.554Z,100148.91
2023-04-19T12:23:56.459Z,100137.34
2023-04-19T12:26:25.311Z,100134.03
2023-04-19T12:28:52.560Z,100140.91
2023-04-19T12:31:20.803Z,100129.13
2023-04-19T12:33:49.123Z,100123.50
2023-04-19T12:36:16.441Z,100125.91
2023-04-19T12:38:43.944Z,100126.62
2023-04-19T12:41:11.700Z,100123.88
2023-04-19T12:43:38.816Z,100129.41
2023-04-19T12:46:06.191Z,100128.63
2023-04-19T12:48:33.833Z,100127.34
2023-04-19T12:51:01.199Z,100126.25
2023-04-19T12:53:28.481Z,100130.56
2023-04-19T12:55:56.002Z,100123.53
2023-04-19T12:58:23.244Z,100125.56
2023-04-19T13:00:50.994Z,100124.06
2023-04-19T13:03:18.737Z,100129.63
2023-04-19T13:05:46.088Z,100127.97
2023-04-19T13:08:13.305Z,100124.50
2023-04-19T13:10:40.847Z,100122.44
2023-04-19T13:13:08.063Z,100128.78
2023-04-19T13:15:35.442Z,100127.31
2023-04-19T13:18:03.089Z,100121.50
2023-04-19T13:20:30.378Z,100116.09
2023-04-19T13:22:57.569Z,100119.59
2023-04-19T13:25:25.049Z,100119.94
2023-04-19T13:27:52.534Z,100119.25
2023-04-19T13:30:19.780Z,100119.13
2023-04-19T13:32:47.372Z,100113.56
2023-04-19T13:35:14.577Z,100122.31
2023-04-19T13:37:44.290Z,100118.28
2023-04-19T13:40:18.888Z,100120.75
2023-04-19T13:42:46.775Z,100117.28
2023-04-19T13:45:14.274Z,100133.44
2023-04-19T13:47:41.446Z,100120.00
2023-04-19T13:50:09.009Z,100123.19
2023-04-19T13:52:36.472Z,100135.25
2023-04-19T13:55:03.781Z,100140.44
2023-04-19T13:57:31.139Z,100122.47
2023-04-19T13:59:58.589Z,100134.88
2023-04-19T14:02:26.035Z,100133.88
2023-04-19T14:04:53.595Z,100124.78
2023-04-19T14:07:20.755Z,100129.34
2023-04-19T14:09:48.453Z,100124.91
2023-04-19T14:12:15.957Z,100135.87
2023-04-19T14:14:43.149Z,100123.03
2023-04-19T14:17:10.228Z,100118.44
2023-04-19T14:19:37.943Z,100133.72
2023-04-19T14:22:05.076Z,100139.47
2023-04-19T14:24:32.266Z,100128.09
2023-04-19T14:27:10.225Z,100125.91
2023-04-19T14:29:37.850Z,100123.22
2023-04-19T14:32:24.490Z,100114.47
2023-04-19T14:34:54.905Z,100121.34
2023-04-19T14:37:23.402Z,100126.31
2023-04-19T14:39:50.932Z,100122.66
2023-04-19T14:42:20.126Z,100122.13
2023-04-19T14:44:52.520Z,100130.78
2023-04-19T14:47:20.837Z,100116.53
2023-04-19T14:49:48.046Z,100122.22
2023-04-19T14:52:16.165Z,100119.44
2023-04-19T14:54:43.456Z,100132.56
2023-04-19T14:57:10.690Z,100124.50
2023-04-19T14:59:38.079Z,100118.63
2023-04-19T15:02:05.944Z,100126.19
2023-04-19T15:04:40.596Z,100140.59
2023-04-19T15:07:08.830Z,100127.63
2023-04-19T15:09:36.088Z,100136.03
2023-04-19T15:12:03.257Z,100133.69
2023-04-19T15:14:30.692Z,100133.62
2023-04-19T15:16:57.777Z,100141.16
2023-04-19T15:19:24.854Z,100145.28
2023-04-19T15:21:52.347Z,100136.34
2023-04-19T15:24:19.404Z,100135.25
2023-04-19T15:26:46.582Z,100141.72
2023-04-19T15:29:14.410Z,100141.44
2023-04-19T15:31:41.775Z,100147.50
2023-04-19T15:34:08.914Z,100145.69
2023-04-19T15:36:36.388Z,100144.44
2023-04-19T15:39:03.521Z,100143.19
2023-04-19T15:41:30.729Z,100147.12
2023-04-19T15:43:58.148Z,100150.38
2023-04-19T15:46:25.303Z,100147.88
2023-04-19T15:48:52.863Z,100147.44
2023-04-19T15:51:20.248Z,100149.69
2023-04-19T15:53:47.341Z,100151.72
2023-04-19T15:56:14.457Z,100161.91
2023-04-19T15:58:42.262Z,100147.72
2023-04-19T16:01:13.266Z,100162.22
2023-04-19T16:03:41.401Z,100157.00
2023-04-19T16:06:08.764Z,100154.50
2023-04-19T16:08:35.979Z,100163.84
2023-04-19T16:11:05.471Z,100159.09
2023-04-19T16:13:32.628Z,100162.69
2023-04-19T16:16:01.338Z,100167.53
2023-04-19T16:18:28.913Z,100169.34
2023-04-19T16:20:56.094Z,100161.34
2023-04-19T16:23:24.361Z,100164.03
2023-04-19T16:25:54.274Z,100166.91
2023-04-19T16:28:23.291Z,100160.13
2023-04-19T16:30:50.416Z,100166.59
2023-04-19T16:33:17.877Z,100171.88
2023-04-19T16:35:45.414Z,100171.97
2023-04-19T16:38:12.585Z,100177.91
2023-04-19T16:40:40.262Z,100172.41
2023-04-19T16:43:07.495Z,100175.59
2023-04-19T16:45:34.661Z,100174.41
2023-04-19T16:48:02.258Z,100177.44
2023-04-19T16:50:29.440Z,100173.75
2023-04-19T16:52:58.438Z,100182.31
2023-04-19T16:55:25.860Z,100176.09
2023-04-19T16:57:55.535Z,100175.06
2023-04-19T17:00:23.345Z,100179.97
2023-04-19T17:02:52.052Z,100191.06
2023-04-19T17:05:19.731Z,100187.16
2023-04-19T17:07:46.865Z,100185.38
2023-04-19T17:10:14.313Z,100183.50
2023-04-19T17:12:41.472Z,100192.06
2023-04-19T17:15:08.948Z,100188.88
2023-04-19T17:17:36.487Z,100201.47
2023-04-19T17:20:05.753Z,100196.84
2023-04-19T17:22:32.975Z,100200.41
2023-04-19T17:25:00.501Z,100196.25
2023-04-19T17:27:27.712Z,100205.19
2023-04-19T17:29:54.853Z,100209.19
2023-04-19T17:32:22.261Z,100210.03
2023-04-19T17:34:51.915Z,100207.66
2023-04-19T17:37:19.004Z,100213.56
2023-04-19T17:39:46.478Z,100218.03
2023-04-19T17:42:13.633Z,100216.75
2023-04-19T17:44:40.865Z,100226.25
2023-04-19T17:47:08.249Z,100228.62
2023-04-19T17:49:35.383Z,100235.06
2023-04-19T17:52:02.550Z,100235.28
2023-04-19T17:54:30.075Z,100245.34
2023-04-19T17:57:02.511Z,100239.75
2023-04-19T17:59:30.233Z,100243.19
2023-04-19T18:01:57.459Z,100247.16
2023-04-19T18:04:25.068Z,100261.53
2023-04-19T18:06:52.406Z,100258.09
2023-04-19T18:09:20.423Z,100260.38
2023-04-19T18:11:47.982Z,100260.81
2023-04-19T18:14:15.420Z,100260.81
2023-04-19T18:16:42.861Z,100275.25
2023-04-19T18:19:11.439Z,100284.44
2023-04-19T18:21:38.614Z,100273.06
2023-04-19T18:24:06.235Z,100280.34
2023-04-19T18:26:40.384Z,100283.41
2023-04-19T18:29:07.609Z,100274.53
2023-04-19T18:31:35.180Z,100286.25
2023-04-19T18:34:02.935Z,100286.25
2023-04-19T18:36:30.256Z,100289.59
2023-04-19T18:38:57.769Z,100296.38
2023-04-19T18:41:24.991Z,100297.31
2023-04-19T18:44:25.857Z,100292.13
2023-04-19T18:46:41.984Z,100289.19
2023-04-19T18:49:10.153Z,100292.88
2023-04-19T18:51:39.000Z,100292.22
2023-04-19T18:54:06.479Z,100290.88
2023-04-19T18:59:04.077Z,100291.69
2023-04-19T19:01:34.252Z,100293.47
2023-04-19T19:04:23.938Z,100304.63
2023-04-19T19:06:49.982Z,100300.16
2023-04-19T19:09:17.710Z,100309.03
2023-04-19T19:11:56.206Z,100312.75
2023-04-19T19:14:24.567Z,100311.37
2023-04-19T19:16:53.014Z,100312.03
2023-04-19T19:19:22.440Z,100309.94
2023-04-19T19:21:52.120Z,100309.41
2023-04-19T19:24:19.348Z,100313.84
2023-04-19T19:26:46.558Z,100312.00
2023-04-19T19:29:16.962Z,100312.94
2023-04-19T19:31:44.279Z,100318.63
2023-04-19T19:34:25.442Z,100317.38
2023-04-19T19:36:56.322Z,100318.31
2023-04-19T19:39:23.877Z,100319.53
2023-04-19T19:42:05.393Z,100325.06
2023-04-19T19:44:33.855Z,100322.16
2023-04-19T19:47:01.131Z,100321.41
2023-04-19T19:49:28.420Z,100329.13
2023-04-19T19:51:59.454Z,100325.06
2023-04-19T19:54:27.431Z,100320.88
2023-04-19T19:59:30.165Z,100321.25
2023-04-19T20:01:57.916Z,100334.34
2023-04-19T20:04:25.947Z,100329.44
2023-04-19T20:09:23.329Z,100333.84
2023-04-19T20:11:50.788Z,100333.41
2023-04-19T20:14:17.976Z,100330.72
2023-04-19T20:16:45.298Z,100328.56
2023-04-19T20:19:13.175Z,100326.06
2023-04-19T20:21:40.464Z,100320.75
2023-04-19T20:24:08.065Z,100336.50
2023-04-19T20:26:35.681Z,100337.31
2023-04-19T20:29:02.967Z,100328.69
2023-04-19T20:31:30.288Z,100335.94
2023-04-19T20:33:57.852Z,100340.31
2023-04-19T20:36:25.108Z,100338.91
2023-04-19T20:38:52.316Z,100337.72
2023-04-19T20:41:22.097Z,100348.87
2023-04-19T20:43:49.315Z,100356.69
2023-04-19T20:46:16.920Z,100351.47
2023-04-19T20:48:44.489Z,100350.41
2023-04-19T20:51:12.784Z,100358.31
2023-04-19T20:53:39.959Z,100349.34
2023-04-19T20:56:07.468Z,100353.28
2023-04-19T20:58:35.100Z,100359.03
2023-04-19T21:01:02.397Z,100352.69
2023-04-19T21:03:30.056Z,100357.06
2023-04-19T21:05:57.326Z,100359.13
2023-04-19T21:08:24.511Z,100356.91
2023-04-19T21:10:52.006Z,100361.66
2023-04-19T21:13:19.202Z,100359.56
2023-04-19T21:15:46.470Z,100369.88
2023-04-19T21:18:14.074Z,100364.19
2023-04-19T21:20:41.270Z,100369.25
2023-04-19T21:23:08.585Z,100364.28
2023-04-19T21:25:36.131Z,100355.66
2023-04-19T21:28:03.350Z,100363.78
2023-04-19T21:30:30.639Z,100361.47
2023-04-19T21:32:58.191Z,100359.88
2023-04-19T21:35:26.073Z,100371.53
2023-04-19T21:37:53.270Z,100364.75
2023-04-19T21:40:20.860Z,100374.31
2023-04-19T21:42:48.041Z,100369.78
2023-04-19T21:45:15.249Z,100367.59
2023-04-19T21:47:42.783Z,100373.88
2023-04-19T21:50:10.317Z,100362.16
2023-04-19T21:52:40.541Z,100368.03
2023-04-19T21:55:08.514Z,100370.03
2023-04-19T21:57:37.611Z,100364.00
2023-04-19T22:00:06.455Z,100368.87
2023-04-19T22:02:33.978Z,100372.03
2023-04-19T22:05:02.028Z,100373.25
2023-04-19T22:07:32.408Z,100369.41
2023-04-19T22:10:01.386Z,100377.97
2023-04-19T22:12:30.960Z,100370.72
2023-04-19T22:14:58.079Z,100377.38
2023-04-19T22:17:25.258Z,100378.56
2023-04-19T22:19:54.173Z,100378.41
2023-04-19T22:22:21.286Z,100374.47
2023-04-19T22:24:57.398Z,100380.41
2023-04-19T22:27:25.900Z,100382.84
2023-04-19T22:29:53.251Z,100381.84
2023-04-19T22:32:20.487Z,100374.97
2023-04-19T22:34:47.903Z,100377.75
2023-04-19T22:37:15.027Z,100382.16
2023-04-19T22:39:42.146Z,100380.81
2023-04-19T22:42:09.598Z,100378.31
2023-04-19T22:44:36.728Z,100373.38
2023-04-19T22:47:04.938Z,100365.75
2023-04-19T22:49:33.055Z,100377.22
2023-04-19T22:52:00.263Z,100384.16
2023-04-19T22:54:27.397Z,100392.63
2023-04-19T22:56:54.894Z,100384.19
2023-04-19T22:59:22.070Z,100390.63
2023-04-19T23:01:49.386Z,100396.63
2023-04-19T23:04:17.182Z,100390.00
2023-04-19T23:06:44.726Z,100392.91
2023-04-19T23:09:13.829Z,100400.03
2023-04-19T23:11:42.232Z,100406.03
2023-04-19T23:14:10.509Z,100406.22
2023-04-19T23:16:38.751Z,100411.62
2023-04-19T23:19:07.533Z,100408.12
2023-04-19T23:21:34.776Z,100405.53
2023-04-19T23:24:01.965Z,100402.19
2023-04-19T23:26:30.182Z,100391.94
2023-04-19T23:28:57.343Z,100398.97
2023-04-19T23:31:24.628Z,100391.81
2023-04-19T23:33:52.152Z,100388.12
2023-04-19T23:36:19.307Z,100400.16
2023-04-19T23:38:46.560Z,100398.34
2023-04-19T23:41:14.067Z,100392.06
2023-04-19T23:43:41.258Z,100393.69
2023-04-19T23:46:08.510Z,100387.34
2023-04-19T23:48:36.100Z,100393.19
2023-04-19T23:51:03.396Z,100394.53
2023-04-19T23:53:30.826Z,100395.03
2023-04-19T23:55:58.248Z,100395.03
2023-04-19T23:58:25.453Z,100392.38
